Terminal Aerodrome Forecast
Issued by NWS

Home | Current Version | Previous Version | Graphics & Text | Print | Product List | Glossary Off
Versions: 1 2 3 4 5 6 7 8 9 10 11 12 13 14 15 16 17 18 19

882
FTUS43 KGRB 060527
TAFMTW
TAF
KMTW 060527Z 0606/0706 23005KT 6SM -SN SCT030 BKN050
      TEMPO 0610/0613 BKN030
     FM061300 25008KT P6SM BKN030
     FM070100 20008KT P6SM SCT025 OVC040=

USA.gov is the U.S. government's official web portal to all federal, state and local government web resources and services.